Time;durP1;ratioP1;P1;durP2;ratioP2;P2;SDS_P1;SDS_P2;PMS_P1;PMS_P2;Temp;Humidity;BMP_temperature;BMP_pressure;BME280_temperature;BME280_humidity;BME280_pressure;Samples;Min_cycle;Max_cycle;Signal;HPM_P1;HPM_P2
2022/08/22 00:00:23;;;;;;;2.97;1.60;;;21.80;99.90;;;;;;5119886;28;20033;-74
2022/08/22 00:03:19;;;;;;;2.90;1.80;;;21.80;99.90;;;;;;5117116;28;20030;-74
2022/08/22 00:05:57;;;;;;;4.22;1.77;;;21.70;99.90;;;;;;5119475;28;20046;-74
2022/08/22 00:08:48;;;;;;;3.67;1.95;;;21.70;99.90;;;;;;5118236;28;20608;-74
2022/08/22 00:11:20;;;;;;;;;;;21.70;99.90;;;;;;5118871;28;20102;-75
2022/08/22 00:14:00;;;;;;;2.72;1.80;;;21.60;99.90;;;;;;5117989;28;19908;-74
2022/08/22 00:16:39;;;;;;;2.20;1.45;;;21.60;99.90;;;;;;5119395;28;20019;-74
2022/08/22 00:19:29;;;;;;;2.55;1.70;;;21.60;99.90;;;;;;5112347;28;20065;-75
2022/08/22 00:22:06;;;;;;;2.50;1.58;;;21.60;99.90;;;;;;5115938;28;20487;-74
2022/08/22 00:24:47;;;;;;;1.90;1.58;;;21.60;99.90;;;;;;5119232;28;20055;-74
2022/08/22 00:27:26;;;;;;;12.60;2.00;;;21.50;99.90;;;;;;5119391;28;20074;-74
2022/08/22 00:29:59;;;;;;;4.07;1.75;;;21.50;99.90;;;;;;5119157;28;20044;-74
2022/08/22 00:32:27;;;;;;;3.28;1.65;;;21.50;99.90;;;;;;5117473;28;20126;-75
2022/08/22 00:35:19;;;;;;;3.17;1.85;;;21.50;99.90;;;;;;5119221;28;20024;-74
2022/08/22 00:38:11;;;;;;;3.50;1.83;;;21.40;99.90;;;;;;5116845;28;20057;-74
2022/08/22 00:41:04;;;;;;;2.08;1.55;;;21.40;99.90;;;;;;5110544;28;20101;-74
2022/08/22 00:43:49;;;;;;;1.90;1.70;;;21.30;99.90;;;;;;5119099;28;20522;-74
2022/08/22 00:46:26;;;;;;;2.92;1.77;;;21.30;99.90;;;;;;5118198;28;20533;-74
2022/08/22 00:48:59;;;;;;;2.95;1.70;;;21.30;99.90;;;;;;5118658;28;20023;-74
2022/08/22 00:51:54;;;;;;;3.08;1.92;;;21.20;99.90;;;;;;5119033;28;20144;-75
2022/08/22 00:54:38;;;;;;;2.40;1.73;;;21.20;99.90;;;;;;5113399;28;20088;-74
2022/08/22 00:57:26;;;;;;;3.13;1.75;;;21.20;99.90;;;;;;5115325;28;20016;-74
2022/08/22 01:00:13;;;;;;;2.95;1.80;;;21.10;99.90;;;;;;5104060;28;20453;-74
2022/08/22 01:02:58;;;;;;;2.60;1.70;;;21.10;99.90;;;;;;5117810;28;20016;-74
2022/08/22 01:05:27;;;;;;;2.10;1.55;;;21.10;99.90;;;;;;5113944;28;20484;-75
2022/08/22 01:08:06;;;;;;;2.38;1.63;;;21.10;99.90;;;;;;5118454;28;20384;-74
2022/08/22 01:11:02;;;;;;;2.97;1.65;;;21.10;99.90;;;;;;5113196;28;20110;-74
2022/08/22 01:13:55;;;;;;;1.67;1.50;;;21.10;99.90;;;;;;5104976;28;20031;-74
2022/08/22 01:16:30;;;;;;;6.05;1.95;;;21.10;99.90;;;;;;5118080;28;20479;-75
2022/08/22 01:19:08;;;;;;;2.67;1.83;;;21.10;99.90;;;;;;5111352;28;20024;-74
2022/08/22 01:22:02;;;;;;;5.32;2.05;;;21.20;99.90;;;;;;5112815;28;20020;-75
2022/08/22 01:27:51;;;;;;;3.03;1.92;;;21.20;99.90;;;;;;5118325;28;20062;-75
2022/08/22 01:30:28;;;;;;;4.78;1.88;;;21.20;99.90;;;;;;5116361;28;20107;-74
2022/08/22 01:33:34;;;;;;;3.00;2.30;;;21.20;99.90;;;;;;5117805;28;20020;-75
2022/08/22 01:36:21;;;;;;;2.90;1.70;;;21.20;99.90;;;;;;5118157;28;20098;-75
2022/08/22 01:39:08;;;;;;;2.60;1.90;;;21.20;99.90;;;;;;5107326;28;20073;-75
2022/08/22 01:41:39;;;;;;;5.00;2.38;;;21.20;99.90;;;;;;5117896;28;20032;-75
2022/08/22 01:44:08;;;;;;;3.63;2.05;;;21.20;99.90;;;;;;5117819;28;20056;-75
2022/08/22 01:46:59;;;;;;;3.92;1.90;;;21.20;99.90;;;;;;5109337;28;20070;-75
2022/08/22 01:49:45;;;;;;;4.05;2.40;;;21.20;99.90;;;;;;5116251;28;20045;-75
2022/08/22 01:52:33;;;;;;;3.25;2.00;;;21.20;99.90;;;;;;5115348;28;20034;-75
2022/08/22 01:55:25;;;;;;;4.25;1.80;;;21.20;99.90;;;;;;5114812;28;20069;-74
2022/08/22 01:58:00;;;;;;;4.32;1.70;;;21.10;99.90;;;;;;5117034;28;20024;-75
2022/08/22 02:00:47;;;;;;;3.17;2.15;;;21.20;99.90;;;;;;5116235;28;20019;-75
2022/08/22 02:03:25;;;;;;;2.70;2.10;;;21.10;99.90;;;;;;5116794;28;20479;-75
2022/08/22 02:06:02;;;;;;;4.45;1.95;;;21.10;99.90;;;;;;5115861;28;20453;-75
2022/08/22 02:08:39;;;;;;;5.22;2.22;;;21.10;99.90;;;;;;5117658;28;20036;-75
2022/08/22 02:11:09;;;;;;;4.38;1.77;;;21.10;99.90;;;;;;5116239;28;20529;-76
2022/08/22 02:14:14;;;;;;;6.90;1.92;;;21.10;99.90;;;;;;5117533;28;20079;-74
2022/08/22 02:16:48;;;;;;;5.47;2.17;;;21.10;99.90;;;;;;5114750;28;20042;-75
2022/08/22 02:19:14;;;;;;;7.43;2.28;;;21.10;99.90;;;;;;5116518;28;20069;-75
2022/08/22 02:22:10;;;;;;;3.40;1.88;;;21.10;99.90;;;;;;5107405;28;20024;-76
2022/08/22 02:25:00;;;;;;;3.72;2.10;;;21.10;99.90;;;;;;5110409;28;20123;-75
2022/08/22 02:27:44;;;;;;;2.50;1.80;;;21.10;99.90;;;;;;5114649;28;20116;-75
2022/08/22 02:30:25;;;;;;;4.97;1.85;;;21.10;99.90;;;;;;5117353;28;20049;-75
2022/08/22 02:33:01;;;;;;;2.50;1.98;;;21.10;99.90;;;;;;5115538;28;20028;-76
2022/08/22 02:35:36;;;;;;;3.65;1.90;;;21.00;99.90;;;;;;5117493;28;20111;-75
2022/08/22 02:38:25;;;;;;;3.78;2.05;;;21.00;99.90;;;;;;5112581;28;20043;-75
2022/08/22 02:41:01;;;;;;;2.72;1.90;;;21.00;99.90;;;;;;5115805;28;20483;-75
2022/08/22 02:43:39;;;;;;;4.85;2.20;;;21.00;99.90;;;;;;5115983;28;20030;-75
2022/08/22 02:46:19;;;;;;;3.38;1.70;;;20.90;99.90;;;;;;5116317;28;20119;-75
2022/08/22 02:49:01;;;;;;;4.72;2.42;;;20.90;99.90;;;;;;5115433;28;20024;-76
2022/08/22 02:51:32;;;;;;;10.18;2.00;;;20.90;99.90;;;;;;5117075;28;20428;-76
2022/08/22 02:54:29;;;;;;;3.50;2.33;;;20.90;99.90;;;;;;5117180;28;20072;-75
2022/08/22 02:57:21;;;;;;;3.92;1.83;;;20.80;99.90;;;;;;5108460;28;20038;-76
2022/08/22 02:59:56;;;;;;;3.15;1.70;;;20.80;99.90;;;;;;5110040;28;20040;-75
2022/08/22 03:02:34;;;;;;;6.57;1.90;;;20.80;99.90;;;;;;5120340;27;20026;-76
2022/08/22 03:05:26;;;;;;;3.25;1.80;;;20.70;99.90;;;;;;5120536;28;20032;-75
2022/08/22 03:08:30;;;;;;;2.63;1.77;;;20.70;99.90;;;;;;5119701;27;20019;-76
2022/08/22 03:11:02;;;;;;;2.95;2.00;;;20.70;99.90;;;;;;5092099;28;20039;-76
2022/08/22 03:13:56;;;;;;;2.38;1.88;;;20.70;99.90;;;;;;5120592;28;20027;-75
2022/08/22 03:16:32;;;;;;;5.70;1.92;;;20.70;99.90;;;;;;5119167;28;20023;-75
2022/08/22 03:19:13;;;;;;;2.53;1.90;;;20.70;99.90;;;;;;5120523;28;20102;-75
2022/08/22 03:22:05;;;;;;;;;;;20.70;99.90;;;;;;5121034;28;20023;-75
2022/08/22 03:24:45;;;;;;;5.50;1.90;;;20.70;99.90;;;;;;5115996;28;19915;-75
2022/08/22 03:27:28;;;;;;;4.13;2.43;;;20.70;99.90;;;;;;5118800;28;20083;-75
2022/08/22 03:30:06;;;;;;;3.47;2.10;;;20.60;99.90;;;;;;5120586;28;20027;-75
2022/08/22 03:32:53;;;;;;;3.13;2.15;;;20.60;99.90;;;;;;5109491;28;20041;-76
2022/08/22 03:35:44;;;;;;;3.35;2.03;;;20.60;99.90;;;;;;5118860;28;20102;-75
2022/08/22 03:38:29;;;;;;;2.72;1.90;;;20.60;99.90;;;;;;5110804;28;20071;-75
2022/08/22 03:41:05;;;;;;;6.13;2.30;;;20.60;99.90;;;;;;5117945;28;20081;-75
2022/08/22 03:44:08;;;;;;;4.55;2.10;;;20.60;99.90;;;;;;5119613;28;20059;-75
2022/08/22 03:47:11;;;;;;;3.67;2.03;;;20.50;99.90;;;;;;5107988;28;20024;-75
2022/08/22 03:49:40;;;;;;;3.00;1.83;;;20.50;99.90;;;;;;5118034;28;20031;-76
2022/08/22 03:53:05;;;;;;;3.88;2.05;;;20.50;99.90;;;;;;5118876;28;20028;-75
2022/08/22 03:55:50;;;;;;;4.20;2.38;;;20.50;99.90;;;;;;5110692;28;20039;-76
2022/08/22 03:58:40;;;;;;;5.32;2.00;;;20.50;99.90;;;;;;5072231;28;20066;-75
2022/08/22 04:01:41;;;;;;;7.20;2.20;;;20.50;99.90;;;;;;5118141;28;20062;-75
2022/08/22 04:04:07;;;;;;;;;;;20.40;99.90;;;;;;5120188;28;20028;-75
2022/08/22 04:06:51;;;;;;;6.10;2.22;;;20.50;99.90;;;;;;5118565;28;20429;-75
2022/08/22 04:09:25;;;;;;;5.45;2.20;;;20.40;99.90;;;;;;5119740;28;20034;-75
2022/08/22 04:12:38;;;;;;;6.03;1.98;;;20.40;99.90;;;;;;5112780;28;20403;-75
2022/08/22 04:15:14;;;;;;;5.50;2.13;;;20.40;99.90;;;;;;5118278;28;20019;-75
2022/08/22 04:17:59;;;;;;;3.63;2.10;;;20.30;99.90;;;;;;5118181;28;20077;-76
2022/08/22 04:20:37;;;;;;;2.55;2.15;;;20.30;99.90;;;;;;5119394;28;20386;-75
2022/08/22 04:23:15;;;;;;;3.78;2.10;;;20.30;99.90;;;;;;5111496;28;20024;-75
2022/08/22 04:26:02;;;;;;;4.28;2.10;;;20.20;99.90;;;;;;5117835;28;20090;-75
2022/08/22 04:28:34;;;;;;;6.22;2.03;;;20.10;99.90;;;;;;5119322;28;20031;-75
2022/08/22 04:31:05;;;;;;;7.57;2.50;;;20.10;99.90;;;;;;5119104;28;20031;-76
2022/08/22 04:33:49;;;;;;;6.85;2.45;;;20.10;99.90;;;;;;5117897;28;20030;-75
2022/08/22 04:36:41;;;;;;;4.88;2.30;;;20.10;99.90;;;;;;5114200;28;20023;-75
2022/08/22 04:39:28;;;;;;;2.50;2.05;;;20.00;99.90;;;;;;5117819;28;20034;-75
2022/08/22 04:42:35;;;;;;;3.85;2.33;;;20.00;99.90;;;;;;5119159;28;20486;-75
2022/08/22 04:45:07;;;;;;;2.17;1.90;;;20.00;99.90;;;;;;5117899;28;20546;-75
2022/08/22 04:47:41;;;;;;;4.65;2.70;;;20.00;99.90;;;;;;5118821;28;20026;-75
2022/08/22 04:50:44;;;;;;;3.97;2.63;;;20.00;99.90;;;;;;5119103;27;20054;-76
2022/08/22 04:53:43;;;;;;;6.63;2.00;;;20.00;99.90;;;;;;5105924;28;20027;-76
2022/08/22 04:56:46;;;;;;;4.70;3.10;;;20.00;99.90;;;;;;5117338;28;20498;-75
2022/08/22 04:59:15;;;;;;;7.35;2.78;;;20.00;99.90;;;;;;5118744;28;20030;-76
2022/08/22 05:01:41;;;;;;;7.50;3.00;;;20.00;99.90;;;;;;5115669;28;20055;-75
2022/08/22 05:04:26;;;;;;;7.25;3.60;;;20.00;99.90;;;;;;5116038;28;20015;-75
2022/08/22 05:07:04;;;;;;;6.68;3.33;;;20.00;99.90;;;;;;5118636;28;20019;-76
2022/08/22 05:09:34;;;;;;;6.05;3.60;;;20.00;99.90;;;;;;5106617;28;20041;-77
2022/08/22 05:12:07;;;;;;;5.45;3.58;;;20.00;99.90;;;;;;5115012;28;20016;-76
2022/08/22 05:14:45;;;;;;;5.03;3.85;;;20.00;99.90;;;;;;5118532;28;20032;-76
2022/08/22 05:17:15;;;;;;;4.80;3.47;;;19.90;99.90;;;;;;5111213;28;20165;-76
2022/08/22 05:19:49;;;;;;;9.73;3.63;;;19.90;99.90;;;;;;5111244;28;20034;-75
2022/08/22 05:22:23;;;;;;;9.68;3.90;;;19.90;99.90;;;;;;5104238;28;20028;-75
2022/08/22 05:24:55;;;;;;;5.72;4.30;;;19.90;99.90;;;;;;5118118;28;20468;-76
2022/08/22 05:27:27;;;;;;;5.72;3.67;;;19.90;99.90;;;;;;5117832;28;20534;-76
2022/08/22 05:30:04;;;;;;;6.35;3.90;;;19.90;99.90;;;;;;5113415;28;20114;-76
2022/08/22 05:32:46;;;;;;;10.25;4.20;;;19.90;99.90;;;;;;5107168;28;20079;-76
2022/08/22 05:35:15;;;;;;;8.90;3.90;;;20.00;99.90;;;;;;5112307;28;20115;-75
2022/08/22 05:37:46;;;;;;;7.47;4.47;;;20.00;99.90;;;;;;5111452;28;20027;-76
2022/08/22 05:40:25;;;;;;;7.90;4.18;;;20.00;99.90;;;;;;5112564;28;20369;-76
2022/08/22 05:42:53;;;;;;;9.15;3.42;;;20.00;99.90;;;;;;5112623;28;20114;-76
2022/08/22 05:45:20;;;;;;;4.45;2.85;;;20.00;99.90;;;;;;5116649;28;20076;-76
2022/08/22 05:47:55;;;;;;;4.55;3.20;;;20.00;99.90;;;;;;5117696;28;20069;-75
2022/08/22 05:50:21;;;;;;;6.13;3.45;;;20.10;99.90;;;;;;5116511;28;20012;-76
2022/08/22 05:53:08;;;;;;;8.02;4.25;;;20.10;99.90;;;;;;5110957;28;20399;-75
2022/08/22 05:55:47;;;;;;;10.55;4.50;;;20.10;99.90;;;;;;5111450;28;20016;-75
2022/08/22 05:59:11;;;;;;;4.60;3.67;;;20.20;99.90;;;;;;5117862;28;20031;-76
2022/08/22 06:01:57;;;;;;;11.25;3.45;;;20.20;99.90;;;;;;5101898;28;20107;-76
2022/08/22 06:04:37;;;;;;;7.00;3.30;;;20.10;99.90;;;;;;5117292;28;20036;-76
2022/08/22 06:07:24;;;;;;;5.35;3.33;;;20.10;99.90;;;;;;5117349;28;20091;-75
2022/08/22 06:10:21;;;;;;;10.40;3.20;;;20.10;99.90;;;;;;5116222;28;20123;-75
2022/08/22 06:13:01;;;;;;;3.38;2.78;;;20.10;99.90;;;;;;5106533;28;20024;-76
2022/08/22 06:15:36;;;;;;;7.20;2.53;;;20.20;99.90;;;;;;5113774;28;20027;-76
2022/08/22 06:18:09;;;;;;;5.13;2.55;;;20.20;99.90;;;;;;5115804;28;20491;-76
2022/08/22 06:20:43;;;;;;;2.85;1.90;;;20.10;99.90;;;;;;5117286;28;20024;-76
2022/08/22 06:23:16;;;;;;;3.53;2.20;;;20.10;99.90;;;;;;5110593;28;20122;-75
2022/08/22 06:25:46;;;;;;;3.25;2.13;;;20.00;99.90;;;;;;5117327;28;20026;-75
2022/08/22 06:28:19;;;;;;;2.70;1.77;;;19.80;99.90;;;;;;5108423;28;20019;-75
2022/08/22 06:30:46;;;;;;;6.43;1.60;;;19.60;99.90;;;;;;5115687;28;20123;-74
2022/08/22 06:33:19;;;;;;;4.70;1.95;;;19.50;99.90;;;;;;5106206;28;20011;-75
2022/08/22 06:39:15;;;;;;;2.88;1.50;;;19.40;99.90;;;;;;5109145;28;20084;-77
2022/08/22 06:41:52;;;;;;;4.00;1.58;;;19.40;99.90;;;;;;5121742;28;20062;-78
2022/08/22 06:44:25;;;;;;;3.58;3.00;;;19.40;99.90;;;;;;5119737;28;20020;-78
2022/08/22 06:46:53;;;;;;;5.40;1.75;;;19.40;99.90;;;;;;5120914;28;20016;-76
2022/08/22 06:49:22;;;;;;;2.10;1.60;;;19.30;99.90;;;;;;5107681;28;20027;-76
2022/08/22 06:51:49;;;;;;;4.03;2.10;;;19.30;99.90;;;;;;5111345;28;20031;-78
2022/08/22 06:54:20;;;;;;;3.45;1.90;;;19.20;99.90;;;;;;5120024;28;20011;-74
2022/08/22 06:56:51;;;;;;;4.50;1.77;;;19.20;99.90;;;;;;5119129;28;20385;-77
2022/08/22 06:59:23;;;;;;;2.95;2.08;;;19.20;99.90;;;;;;5121206;28;20597;-76
2022/08/22 07:02:02;;;;;;;2.85;1.80;;;19.30;99.90;;;;;;5112794;28;20118;-77
2022/08/22 07:04:29;;;;;;;4.57;1.77;;;19.40;99.90;;;;;;5123638;27;20030;-76
2022/08/22 07:06:58;;;;;;;2.10;1.70;;;19.50;99.90;;;;;;5113838;28;20429;-76
2022/08/22 07:09:37;;;;;;;1.80;1.40;;;19.60;99.90;;;;;;5119858;27;20057;-77
2022/08/22 07:12:30;;;;;;;3.40;2.25;;;19.70;99.90;;;;;;5115628;28;20023;-74
2022/08/22 07:15:10;;;;;;;2.55;1.85;;;19.80;99.90;;;;;;5106232;28;20407;-74
2022/08/22 07:17:45;;;;;;;3.70;2.00;;;19.90;99.90;;;;;;5115986;28;20050;-75
2022/08/22 07:20:22;;;;;;;2.92;2.22;;;20.00;99.90;;;;;;5119664;28;20102;-77
2022/08/22 07:23:13;;;;;;;3.63;1.95;;;20.10;99.90;;;;;;5119697;28;20008;-77
2022/08/22 07:25:56;;;;;;;3.47;1.77;;;20.20;99.90;;;;;;5107728;28;20071;-77
2022/08/22 07:28:43;;;;;;;3.47;2.22;;;20.40;99.90;;;;;;5115402;28;20058;-76
2022/08/22 07:31:43;;;;;;;5.57;2.13;;;20.40;99.90;;;;;;5109462;28;20085;-77
2022/08/22 07:34:38;;;;;;;6.70;2.60;;;20.60;99.90;;;;;;5099404;28;20036;-77
2022/08/22 07:37:12;;;;;;;5.07;2.60;;;20.70;99.90;;;;;;5117912;28;20422;-78
2022/08/22 07:39:48;;;;;;;2.72;2.13;;;20.70;99.90;;;;;;5119191;28;20500;-77
2022/08/22 07:42:21;;;;;;;7.45;2.88;;;20.80;99.90;;;;;;5118962;28;20083;-77
2022/08/22 07:45:15;;;;;;;4.60;2.83;;;20.80;99.90;;;;;;5111807;28;20024;-78
2022/08/22 07:47:44;;;;;;;6.00;2.47;;;20.90;99.90;;;;;;5112149;28;20091;-78
2022/08/22 07:50:16;;;;;;;6.82;2.60;;;21.00;99.90;;;;;;5119009;28;20102;-78
2022/08/22 07:52:44;;;;;;;5.45;2.80;;;21.00;99.90;;;;;;5119007;28;20069;-77
2022/08/22 07:55:12;;;;;;;5.75;2.72;;;21.10;99.90;;;;;;5116350;28;20047;-77
2022/08/22 07:57:42;;;;;;;4.50;2.85;;;21.20;99.90;;;;;;5117997;28;20614;-78
2022/08/22 08:00:17;;;;;;;5.63;2.67;;;21.40;99.90;;;;;;5115160;28;20052;-77
2022/08/22 08:02:50;;;;;;;5.10;3.08;;;21.40;99.90;;;;;;5114304;28;20027;-78
2022/08/22 08:05:19;;;;;;;3.75;2.60;;;21.60;99.90;;;;;;5111777;28;20456;-78
2022/08/22 08:07:46;;;;;;;3.10;2.67;;;21.80;99.90;;;;;;5112727;28;20022;-78
2022/08/22 08:10:18;;;;;;;7.32;3.08;;;22.00;99.90;;;;;;5119091;28;20480;-79
2022/08/22 08:12:57;;;;;;;4.53;2.30;;;22.10;99.90;;;;;;5119743;28;20118;-76
2022/08/22 08:15:24;;;;;;;3.70;2.70;;;22.10;99.90;;;;;;5113127;28;20100;-78
2022/08/22 08:17:59;;;;;;;7.30;3.13;;;22.00;99.90;;;;;;5117675;28;20020;-78
2022/08/22 08:20:26;;;;;;;3.65;2.63;;;22.00;99.90;;;;;;5119901;28;20107;-78
2022/08/22 08:22:54;;;;;;;4.78;3.10;;;21.90;99.90;;;;;;5119772;27;20098;-78
2022/08/22 08:25:27;;;;;;;5.60;3.30;;;22.00;99.90;;;;;;5119613;28;20035;-77
2022/08/22 08:30:47;;;;;;;4.43;2.55;;;21.80;99.90;;;;;;5118455;28;20050;-79
2022/08/22 08:33:17;;;;;;;5.88;2.72;;;21.80;99.90;;;;;;5112057;28;20045;-77
2022/08/22 08:35:50;;;;;;;;;;;21.90;99.90;;;;;;5112716;28;20020;-76
2022/08/22 08:38:25;;;;;;;6.72;3.38;;;22.20;99.90;;;;;;5117663;28;19953;-77
2022/08/22 08:40:57;;;;;;;4.45;2.60;;;22.50;99.90;;;;;;5118594;28;20053;-77
2022/08/22 08:43:42;;;;;;;12.45;2.95;;;23.00;99.90;;;;;;5118596;28;20051;-77
2022/08/22 08:46:11;;;;;;;9.02;3.10;;;23.00;99.90;;;;;;5110484;28;20055;-77
2022/08/22 08:48:55;;;;;;;4.63;2.55;;;23.00;99.90;;;;;;5117660;28;20479;-77
2022/08/22 08:51:54;;;;;;;6.82;2.20;;;22.90;99.90;;;;;;5107220;28;20042;-78
2022/08/22 08:54:45;;;;;;;4.30;2.40;;;22.90;99.90;;;;;;5114173;28;20039;-78
2022/08/22 08:57:29;;;;;;;4.13;2.38;;;22.80;99.90;;;;;;5110217;28;20038;-77
2022/08/22 09:00:16;;;;;;;4.97;2.30;;;22.60;99.90;;;;;;5110646;28;20391;-76
2022/08/22 09:03:08;;;;;;;3.97;2.53;;;22.50;99.90;;;;;;5110905;28;20016;-76
2022/08/22 09:06:11;;;;;;;7.72;3.05;;;22.40;99.90;;;;;;5107816;28;20076;-76
2022/08/22 09:08:46;;;;;;;7.47;2.65;;;22.30;99.90;;;;;;5118146;28;20026;-76
2022/08/22 09:11:49;;;;;;;11.60;2.90;;;22.00;99.90;;;;;;5117162;28;20091;-76
2022/08/22 09:14:34;;;;;;;3.58;2.28;;;21.80;99.90;;;;;;5103321;28;20659;-75
2022/08/22 09:17:37;;;;;;;3.55;2.17;;;21.80;99.90;;;;;;5112287;28;20036;-74
2022/08/22 09:20:29;;;;;;;7.13;2.60;;;21.70;99.90;;;;;;5108163;28;20027;-74
2022/08/22 09:23:13;;;;;;;3.92;2.58;;;21.50;99.90;;;;;;5110239;28;20024;-74
2022/08/22 09:26:01;;;;;;;5.40;3.25;;;21.40;99.90;;;;;;5111940;28;20108;-74
2022/08/22 09:28:53;;;;;;;4.43;2.17;;;21.30;99.90;;;;;;5115596;28;20016;-74
2022/08/22 09:31:30;;;;;;;3.42;1.98;;;21.40;99.90;;;;;;5112838;28;20098;-74
2022/08/22 09:34:15;;;;;;;8.90;3.15;;;21.40;99.90;;;;;;5114673;28;20024;-74
2022/08/22 09:37:18;;;;;;;3.72;2.38;;;21.30;99.90;;;;;;5116790;28;20134;-74
2022/08/22 09:39:58;;;;;;;5.22;2.63;;;21.30;99.90;;;;;;5091831;28;20035;-75
2022/08/22 09:42:36;;;;;;;;;;;21.40;99.90;;;;;;5116623;28;20027;-74
2022/08/22 09:45:24;;;;;;;4.93;2.42;;;21.50;99.90;;;;;;5114929;28;19988;-74
2022/08/22 09:48:07;;;;;;;5.30;2.33;;;21.70;99.90;;;;;;5113274;28;20036;-74
2022/08/22 09:50:55;;;;;;;6.57;2.58;;;21.90;99.90;;;;;;5107564;28;20023;-73
2022/08/22 09:53:55;;;;;;;4.57;2.45;;;22.10;99.90;;;;;;5112266;28;20096;-76
2022/08/22 09:56:26;;;;;;;7.00;3.00;;;22.50;99.90;;;;;;5117348;28;20028;-76
2022/08/22 09:59:23;;;;;;;5.53;2.15;;;22.90;99.90;;;;;;5107802;28;20036;-76
2022/08/22 10:01:57;;;;;;;4.53;2.70;;;22.90;99.90;;;;;;5115509;28;20503;-75
2022/08/22 10:04:56;;;;;;;8.15;2.17;;;22.80;99.90;;;;;;5110671;28;20022;-77
2022/08/22 10:07:49;;;;;;;4.47;2.35;;;22.90;99.90;;;;;;5080158;28;20153;-76
2022/08/22 10:10:24;;;;;;;5.65;2.38;;;22.90;99.90;;;;;;5116741;28;20042;-76
2022/08/22 10:13:08;;;;;;;6.03;1.92;;;22.80;99.90;;;;;;5103804;28;20030;-74
2022/08/22 10:15:39;;;;;;;3.50;1.90;;;23.00;99.90;;;;;;5115503;28;20050;-74
2022/08/22 10:18:33;;;;;;;3.47;2.45;;;23.00;99.90;;;;;;5112247;28;20059;-74
2022/08/22 10:21:08;;;;;;;5.95;2.00;;;23.20;99.90;;;;;;5115103;28;20024;-74
2022/08/22 10:23:34;;;;;;;7.22;2.45;;;23.40;99.90;;;;;;5106920;28;20034;-73
2022/08/22 10:26:11;;;;;;;5.78;2.25;;;23.40;99.90;;;;;;5116348;28;20524;-76
2022/08/22 10:28:51;;;;;;;4.93;2.00;;;23.60;99.90;;;;;;5115875;28;20102;-76
2022/08/22 10:31:38;;;;;;;5.75;2.13;;;23.80;99.90;;;;;;5116602;28;20023;-76
2022/08/22 10:34:16;;;;;;;3.25;1.60;;;23.90;99.90;;;;;;5107166;28;20601;-76
2022/08/22 10:36:52;;;;;;;5.55;2.35;;;24.10;99.90;;;;;;5064521;28;20023;-75
2022/08/22 10:39:25;;;;;;;4.43;1.52;;;24.40;99.90;;;;;;5082968;28;20048;-76
2022/08/22 10:42:23;;;;;;;6.38;1.58;;;24.60;99.90;;;;;;5112715;28;20152;-76
2022/08/22 10:45:16;;;;;;;4.57;1.65;;;24.50;99.90;;;;;;5116947;28;20026;-74
2022/08/22 10:48:05;;;;;;;2.80;1.55;;;24.60;99.90;;;;;;5112490;28;20022;-75
2022/08/22 10:50:47;;;;;;;3.70;1.30;;;24.70;99.90;;;;;;5086227;28;20040;-77
2022/08/22 10:53:29;;;;;;;6.18;1.88;;;24.60;99.90;;;;;;5112122;28;20383;-76
2022/08/22 10:56:20;;;;;;;4.20;1.88;;;24.40;99.90;;;;;;5111894;28;20027;-75
2022/08/22 10:58:49;;;;;;;3.33;1.90;;;23.60;99.90;;;;;;5113867;28;20038;-75
2022/08/22 11:01:18;;;;;;;3.80;1.70;;;23.10;99.90;;;;;;5116611;28;20027;-75
2022/08/22 11:04:12;;;;;;;3.50;1.60;;;22.90;99.90;;;;;;5116904;28;20032;-75
2022/08/22 11:06:58;;;;;;;5.95;2.03;;;23.00;99.90;;;;;;5117042;28;20112;-75
2022/08/22 11:09:42;;;;;;;3.05;2.00;;;23.20;99.90;;;;;;5114102;28;20050;-75
2022/08/22 11:12:30;;;;;;;3.58;1.80;;;23.30;99.90;;;;;;5115353;28;20035;-75
2022/08/22 11:15:21;;;;;;;3.75;2.15;;;23.40;99.90;;;;;;5109177;28;20023;-75
2022/08/22 11:18:04;;;;;;;5.47;1.80;;;23.70;99.90;;;;;;5115075;28;20027;-76
2022/08/22 11:20:32;;;;;;;8.23;1.80;;;23.90;99.90;;;;;;5117313;28;20022;-77
2022/08/22 11:23:24;;;;;;;4.78;1.50;;;24.20;99.90;;;;;;5120627;28;20073;-78
2022/08/22 11:26:34;;;;;;;4.55;1.60;;;24.30;99.90;;;;;;5105630;28;20123;-77
2022/08/22 11:29:19;;;;;;;1.92;1.40;;;24.50;99.90;;;;;;5046815;28;20031;-76
2022/08/22 11:32:04;;;;;;;1.60;1.08;;;24.60;99.90;;;;;;5056861;28;20021;-78
2022/08/22 11:34:57;;;;;;;3.50;1.80;;;24.60;99.90;;;;;;5105793;28;20043;-76
2022/08/22 11:37:25;;;;;;;2.38;1.50;;;24.60;99.90;;;;;;5118923;28;20491;-76
2022/08/22 11:40:12;;;;;;;4.15;1.73;;;24.70;99.90;;;;;;5118766;28;20023;-76
2022/08/22 11:43:07;;;;;;;3.92;1.50;;;24.60;99.90;;;;;;5117754;28;20017;-76
2022/08/22 11:45:43;;;;;;;3.33;1.35;;;25.00;99.90;;;;;;5079810;28;20051;-77
2022/08/22 11:48:22;;;;;;;2.28;1.50;;;25.30;99.90;;;;;;5118082;28;20016;-75
2022/08/22 11:51:04;;;;;;;5.68;1.70;;;25.60;99.90;;;;;;5118502;28;20472;-76
2022/08/22 11:53:43;;;;;;;3.10;1.40;;;25.90;99.90;;;;;;5118706;28;20028;-77
2022/08/22 11:56:28;;;;;;;3.15;1.42;;;26.10;99.90;;;;;;5118860;28;20023;-77
2022/08/22 11:59:01;;;;;;;3.90;1.73;;;26.00;99.90;;;;;;5118162;28;20024;-77
2022/08/22 12:01:42;;;;;;;5.82;1.42;;;26.00;99.90;;;;;;5119204;28;20027;-73
2022/08/22 12:04:21;;;;;;;2.53;1.60;;;26.10;99.90;;;;;;5106964;28;20016;-78
2022/08/22 12:06:54;;;;;;;1.67;1.25;;;26.40;99.90;;;;;;5119948;28;20387;-75
2022/08/22 12:09:38;;;;;;;2.80;1.60;;;26.20;99.90;;;;;;5118232;28;20030;-75
2022/08/22 12:12:13;;;;;;;3.63;1.25;;;26.20;99.90;;;;;;5115979;28;20023;-75
2022/08/22 12:15:17;;;;;;;2.47;1.27;;;26.20;99.90;;;;;;5106957;28;20024;-76
2022/08/22 12:18:17;;;;;;;2.65;1.10;;;26.20;99.90;;;;;;5111848;28;20022;-75
2022/08/22 12:21:10;;;;;;;3.10;1.17;;;26.20;99.90;;;;;;5117903;28;20035;-75
2022/08/22 12:24:01;;;;;;;5.70;1.60;;;26.30;99.90;;;;;;5117940;28;20269;-77
2022/08/22 12:26:26;;;;;;;2.08;1.13;;;26.40;99.90;;;;;;5113009;28;20031;-76
2022/08/22 12:29:26;;;;;;;2.83;1.10;;;26.30;99.90;;;;;;5116663;28;20080;-76
2022/08/22 12:32:16;;;;;;;4.07;1.52;;;26.20;99.90;;;;;;5104667;28;20015;-77
2022/08/22 12:34:57;;;;;;;3.42;1.20;;;26.00;99.90;;;;;;5107384;28;20114;-77
2022/08/22 12:37:23;;;;;;;1.55;1.00;;;25.70;99.90;;;;;;5118873;27;20024;-76
2022/08/22 12:40:07;;;;;;;4.43;1.45;;;25.50;99.90;;;;;;5118013;28;20028;-76
2022/08/22 12:42:52;;;;;;;3.97;1.60;;;25.50;99.90;;;;;;5117574;28;20178;-75
2022/08/22 12:45:58;;;;;;;3.63;1.23;;;25.60;99.90;;;;;;5117223;28;20042;-75
2022/08/22 12:48:44;;;;;;;3.10;1.60;;;25.60;99.90;;;;;;5106930;28;20026;-76
2022/08/22 12:51:24;;;;;;;4.20;1.30;;;25.40;99.90;;;;;;5086294;28;20032;-76
2022/08/22 12:53:58;;;;;;;5.88;2.38;;;25.00;99.90;;;;;;5118628;28;20094;-74
2022/08/22 12:56:56;;;;;;;3.22;1.67;;;24.60;99.90;;;;;;5117185;28;20027;-74
2022/08/22 12:59:31;;;;;;;6.47;1.50;;;24.40;99.90;;;;;;5083473;28;20043;-75
2022/08/22 13:02:01;;;;;;;5.28;2.10;;;24.50;99.90;;;;;;5118375;28;20476;-76
2022/08/22 13:04:33;;;;;;;2.38;1.17;;;24.80;99.90;;;;;;5116091;28;20106;-75
2022/08/22 13:07:21;;;;;;;3.95;1.20;;;25.00;99.90;;;;;;5110192;28;20023;-74
2022/08/22 13:10:00;;;;;;;4.75;1.80;;;25.20;99.90;;;;;;5108873;28;20024;-75
2022/08/22 13:12:42;;;;;;;5.45;1.63;;;25.40;99.90;;;;;;5114660;28;20121;-75
2022/08/22 13:15:30;;;;;;;2.05;1.10;;;25.70;99.90;;;;;;5112512;28;20046;-75
2022/08/22 13:17:59;;;;;;;2.22;1.15;;;25.80;99.90;;;;;;5104205;28;20032;-75
2022/08/22 13:20:38;;;;;;;2.63;1.23;;;25.90;99.90;;;;;;5106208;28;20030;-76
2022/08/22 13:23:47;;;;;;;1.10;0.88;;;26.10;99.90;;;;;;5116701;28;20463;-74
2022/08/22 13:26:20;;;;;;;1.08;0.70;;;26.30;99.90;;;;;;5070226;28;20047;-74
2022/08/22 13:28:58;;;;;;;1.33;0.85;;;26.30;99.90;;;;;;5105206;28;20369;-74
2022/08/22 13:31:33;;;;;;;3.60;0.82;;;26.60;99.90;;;;;;5111801;28;20020;-74
2022/08/22 13:34:11;;;;;;;1.38;0.80;;;27.00;99.90;;;;;;5108297;28;20022;-76
2022/08/22 13:36:46;;;;;;;5.28;0.85;;;27.30;99.90;;;;;;5117908;28;20511;-75
2022/08/22 13:39:12;;;;;;;1.17;0.88;;;27.10;99.90;;;;;;5106882;28;20027;-76
2022/08/22 13:41:47;;;;;;;1.38;0.77;;;26.50;99.90;;;;;;5110102;28;20034;-76
2022/08/22 13:44:37;;;;;;;1.05;0.75;;;25.90;99.90;;;;;;5111517;28;20020;-74
2022/08/22 13:47:08;;;;;;;1.60;0.80;;;24.70;99.90;;;;;;5116153;28;20031;-76
2022/08/22 13:49:51;;;;;;;1.42;0.90;;;23.60;99.90;;;;;;5117746;28;20395;-76
2022/08/22 13:52:37;;;;;;;0.60;0.60;;;23.00;99.90;;;;;;5116892;28;20077;-76
2022/08/22 13:55:22;;;;;;;2.40;0.90;;;22.60;99.90;;;;;;5117304;28;20419;-74
2022/08/22 13:58:03;;;;;;;1.13;0.98;;;22.50;99.90;;;;;;5106318;28;20052;-74
2022/08/22 14:01:14;;;;;;;0.80;0.70;;;22.60;99.90;;;;;;5117327;28;20022;-74
2022/08/22 14:03:45;;;;;;;1.88;0.68;;;23.10;99.90;;;;;;5117338;28;20022;-75
2022/08/22 14:06:34;;;;;;;2.42;0.90;;;23.70;99.90;;;;;;5117212;28;20024;-73
2022/08/22 14:09:23;;;;;;;0.73;0.73;;;24.20;99.90;;;;;;5111938;28;20032;-74
2022/08/22 14:12:03;;;;;;;0.95;0.65;;;24.50;99.90;;;;;;5105519;28;20020;-73